Time;durP1;ratioP1;P1;durP2;ratioP2;P2;SDS_P1;SDS_P2;PMS_P1;PMS_P2;Temp;Humidity;BMP_temperature;BMP_pressure;BME280_temperature;BME280_humidity;BME280_pressure;Samples;Min_cycle;Max_cycle;Signal;HPM_P1;HPM_P2
2022/09/13 00:00:29;;;;;;;;;;;;;;;16.30;62.55;95150.72;5068426;28;20139;-64
2022/09/13 00:02:54;;;;;;;;;;;;;;;16.30;62.75;95148.03;5089007;28;20013;-65
2022/09/13 00:05:19;;;;;;;;;;;;;;;16.27;62.78;95146.03;5089077;28;20060;-65
2022/09/13 00:07:44;;;;;;;;;;;;;;;16.23;62.88;95145.16;5071680;28;20544;-64
2022/09/13 00:10:10;;;;;;;;;;;;;;;16.21;63.00;95142.03;5087322;28;20013;-65
2022/09/13 00:12:35;;;;;;;;;;;;;;;16.19;63.12;95147.72;5089914;28;20009;-64
2022/09/13 00:15:00;;;;;;;;;;;;;;;16.17;63.16;95139.22;5071037;28;20078;-65
2022/09/13 00:17:26;;;;;;;;;;;;;;;16.16;63.05;95140.34;5069735;28;20416;-65
2022/09/13 00:19:51;;;;;;;;;;;;;;;16.14;63.03;95133.78;5088611;28;20013;-65
2022/09/13 00:22:16;;;;;;;;;;;;;;;16.09;63.06;95132.88;5071528;28;20048;-64
2022/09/13 00:24:41;;;;;;;;;;;;;;;16.08;63.17;95133.22;5088812;28;20020;-64
2022/09/13 00:27:07;;;;;;;;;;;;;;;16.07;63.34;95127.09;5070565;28;20103;-65
2022/09/13 00:29:32;;;;;;;;;;;;;;;16.05;63.43;95121.25;5093801;28;20658;-65
2022/09/13 00:31:57;;;;;;;;;;;;;;;16.02;63.60;95113.09;5087114;28;20086;-65
2022/09/13 00:34:22;;;;;;;;;;;;;;;16.03;63.41;95109.31;5088677;28;20013;-65
2022/09/13 00:36:47;;;;;;;;;;;;;;;16.04;63.67;95110.88;5087422;28;20012;-65
2022/09/13 00:39:13;;;;;;;;;;;;;;;16.04;63.41;95113.56;5087144;28;20043;-64
2022/09/13 00:41:38;;;;;;;;;;;;;;;16.02;63.87;95113.09;5087273;28;20012;-65
2022/09/13 00:44:03;;;;;;;;;;;;;;;16.08;63.72;95111.75;5086307;28;20452;-65
2022/09/13 00:46:55;;;;;;;;;;;;;;;16.04;63.78;95117.00;5068889;28;20040;-65
2022/09/13 00:49:28;;;;;;;;;;;;;;;16.04;64.16;95121.59;5064872;28;20009;-65
2022/09/13 00:51:55;;;;;;;;;;;;;;;16.07;63.91;95119.03;5064089;28;20078;-64
2022/09/13 00:54:22;;;;;;;;;;;;;;;16.02;63.76;95113.91;5088100;28;20111;-64
2022/09/13 00:56:51;;;;;;;;;;;;;;;16.00;63.79;95113.44;5088337;28;20013;-65
2022/09/13 00:59:21;;;;;;;;;;;;;;;16.05;63.51;95101.69;5071259;28;20013;-64
2022/09/13 01:01:48;;;;;;;;;;;;;;;16.05;63.62;95104.38;5091167;28;20058;-65
2022/09/13 01:04:14;;;;;;;;;;;;;;;16.02;63.82;95099.69;5092045;28;20013;-65
2022/09/13 01:06:40;;;;;;;;;;;;;;;15.96;63.86;95096.44;5073925;28;20024;-64
2022/09/13 01:09:06;;;;;;;;;;;;;;;15.95;63.76;95091.44;5074478;28;20009;-65
2022/09/13 01:11:39;;;;;;;;;;;;;;;15.93;63.90;95094.47;5072988;28;20372;-65
2022/09/13 01:14:06;;;;;;;;;;;;;;;15.93;63.70;95083.72;5091919;28;20013;-64
2022/09/13 01:16:31;;;;;;;;;;;;;;;15.94;63.81;95079.94;5091714;28;20100;-65
2022/09/13 01:18:57;;;;;;;;;;;;;;;15.94;63.79;95071.88;5090039;28;20107;-64
2022/09/13 01:21:46;;;;;;;;;;;;;;;15.94;63.89;95079.16;5092792;28;20013;-65
2022/09/13 01:24:29;;;;;;;;;;;;;;;15.93;63.93;95074.91;5073301;28;20035;-65
2022/09/13 01:27:03;;;;;;;;;;;;;;;15.92;64.28;95081.38;5091647;28;20489;-65
2022/09/13 01:29:29;;;;;;;;;;;;;;;15.90;64.23;95073.66;5077550;28;20019;-64
2022/09/13 01:31:54;;;;;;;;;;;;;;;15.88;63.93;95075.16;5091205;28;20013;-65
2022/09/13 01:34:25;;;;;;;;;;;;;;;15.85;64.05;95066.63;5073267;28;20035;-65
2022/09/13 01:37:10;;;;;;;;;;;;;;;15.80;64.24;95066.88;5090459;28;20074;-65
2022/09/13 01:39:56;;;;;;;;;;;;;;;15.81;64.26;95068.44;5092020;28;20004;-65
2022/09/13 01:42:47;;;;;;;;;;;;;;;15.82;64.46;95064.66;5090770;28;20013;-65
2022/09/13 01:45:22;;;;;;;;;;;;;;;15.83;64.55;95068.09;5034219;28;20040;-65
2022/09/13 01:48:05;;;;;;;;;;;;;;;15.83;64.37;95060.06;5091123;28;20023;-64
2022/09/13 01:51:06;;;;;;;;;;;;;;;15.82;64.03;95069.22;5091560;28;20017;-65
2022/09/13 01:53:39;;;;;;;;;;;;;;;16.00;63.75;95072.41;4973021;28;20010;-65
2022/09/13 01:56:07;;;;;;;;;;;;;;;16.07;63.82;95070.75;5058014;28;20381;-64
2022/09/13 01:58:36;;;;;;;;;;;;;;;16.13;63.42;95062.44;5071447;28;20123;-64
2022/09/13 02:01:02;;;;;;;;;;;;;;;16.13;63.29;95059.75;5089050;28;20135;-70
2022/09/13 02:03:35;;;;;;;;;;;;;;;15.87;64.28;95069.00;5065238;28;20016;-65
2022/09/13 02:06:04;;;;;;;;;;;;;;;15.84;64.29;95059.72;5073061;28;20126;-65
2022/09/13 02:08:36;;;;;;;;;;;;;;;15.88;63.89;95064.41;5090096;28;20017;-66
2022/09/13 02:11:13;;;;;;;;;;;;;;;15.81;64.00;95063.06;5073578;28;20492;-65
2022/09/13 02:13:56;;;;;;;;;;;;;;;15.82;63.84;95063.88;5091399;28;20473;-66
2022/09/13 02:16:34;;;;;;;;;;;;;;;15.83;63.97;95058.16;5073276;28;20019;-65
2022/09/13 02:19:05;;;;;;;;;;;;;;;15.82;63.76;95066.56;5066203;28;20016;-65
2022/09/13 02:21:34;;;;;;;;;;;;;;;15.78;64.13;95073.72;5089104;28;20154;-65
2022/09/13 02:24:05;;;;;;;;;;;;;;;15.83;64.01;95068.09;5089588;28;20013;-65
2022/09/13 02:26:33;;;;;;;;;;;;;;;15.84;63.91;95065.09;5090912;28;20009;-66
2022/09/13 02:29:02;;;;;;;;;;;;;;;15.84;63.98;95069.66;5070782;28;20012;-65
2022/09/13 02:31:34;;;;;;;;;;;;;;;15.85;64.16;95066.63;5071608;28;20062;-65
2022/09/13 02:34:02;;;;;;;;;;;;;;;15.83;64.22;95068.09;5089988;28;20012;-65
2022/09/13 02:36:30;;;;;;;;;;;;;;;15.89;64.22;95074.78;5090630;28;20052;-65
2022/09/13 02:38:58;;;;;;;;;;;;;;;15.90;63.90;95071.00;5091083;28;20005;-65
2022/09/13 02:41:36;;;;;;;;;;;;;;;15.92;63.58;95076.81;5071528;28;20020;-65
2022/09/13 02:44:10;;;;;;;;;;;;;;;15.89;63.57;95074.78;5072395;28;20027;-65
2022/09/13 02:47:02;;;;;;;;;;;;;;;15.87;63.60;95066.31;5072262;28;20496;-65
2022/09/13 02:49:30;;;;;;;;;;;;;;;15.87;63.31;95071.69;5048794;28;20017;-65
2022/09/13 02:52:04;;;;;;;;;;;;;;;15.84;63.58;95075.03;5072878;28;20009;-65
2022/09/13 02:54:30;;;;;;;;;;;;;;;15.84;63.81;95075.03;5071856;28;20013;-65
2022/09/13 02:56:58;;;;;;;;;;;;;;;15.83;63.53;95078.84;5089254;28;20013;-65
2022/09/13 02:59:24;;;;;;;;;;;;;;;15.80;63.43;95074.13;5071310;28;20119;-65
2022/09/13 03:01:55;;;;;;;;;;;;;;;15.76;63.79;95068.66;5089850;28;20408;-65
2022/09/13 03:04:20;;;;;;;;;;;;;;;15.76;63.48;95070.56;5088138;28;20019;-65
2022/09/13 03:06:48;;;;;;;;;;;;;;;15.74;63.60;95064.78;5106173;28;20013;-65
2022/09/13 03:09:13;;;;;;;;;;;;;;;15.76;63.98;95068.66;5071273;28;20064;-65
2022/09/13 03:11:38;;;;;;;;;;;;;;;15.78;63.94;95079.84;5090595;28;20090;-65
2022/09/13 03:14:03;;;;;;;;;;;;;;;15.78;63.77;95071.03;5088670;28;20044;-65
2022/09/13 03:16:41;;;;;;;;;;;;;;;15.77;63.41;95074.84;5071044;28;20017;-65
2022/09/13 03:19:08;;;;;;;;;;;;;;;15.75;63.72;95085.09;5088237;28;20019;-65
2022/09/13 03:21:49;;;;;;;;;;;;;;;15.77;63.73;95085.56;5090442;28;20015;-64
2022/09/13 03:24:34;;;;;;;;;;;;;;;15.77;63.93;95074.84;5088085;28;20346;-65
2022/09/13 03:27:08;;;;;;;;;;;;;;;15.76;63.82;95073.25;5059020;28;20009;-65
2022/09/13 03:29:39;;;;;;;;;;;;;;;15.74;63.50;95068.22;5071306;28;20037;-65
2022/09/13 03:32:08;;;;;;;;;;;;;;;15.68;63.88;95068.81;5071317;28;20544;-65
2022/09/13 03:34:33;;;;;;;;;;;;;;;15.66;63.88;95049.56;5088260;28;20035;-65
2022/09/13 03:37:01;;;;;;;;;;;;;;;15.76;63.80;95055.25;5090376;28;20477;-65
2022/09/13 03:39:38;;;;;;;;;;;;;;;15.80;63.49;95048.09;5088805;28;20032;-65
2022/09/13 03:42:09;;;;;;;;;;;;;;;15.81;63.53;95052.34;5071933;28;20151;-65
2022/09/13 03:44:36;;;;;;;;;;;;;;;15.76;63.84;95049.88;5070238;28;20366;-65
2022/09/13 03:47:02;;;;;;;;;;;;;;;15.90;63.16;95062.94;5088708;28;20109;-65
2022/09/13 03:49:28;;;;;;;;;;;;;;;15.73;63.45;95071.25;5088920;28;20071;-65
2022/09/13 03:51:54;;;;;;;;;;;;;;;15.73;63.74;95071.25;5089091;28;20103;-65
2022/09/13 03:54:22;;;;;;;;;;;;;;;15.93;63.25;95073.00;5071440;28;20013;-65
2022/09/13 03:57:07;;;;;;;;;;;;;;;15.72;63.36;95080.44;5071037;28;20009;-65
2022/09/13 03:59:32;;;;;;;;;;;;;;;15.66;63.71;95073.72;5087715;28;20024;-65
2022/09/13 04:01:57;;;;;;;;;;;;;;;15.65;63.89;95077.50;5070538;28;20412;-65
2022/09/13 04:04:23;;;;;;;;;;;;;;;15.65;63.71;95077.50;5069728;28;20031;-65
2022/09/13 04:06:48;;;;;;;;;;;;;;;15.66;63.83;95071.84;5071507;28;20043;-65
2022/09/13 04:09:13;;;;;;;;;;;;;;;15.63;63.59;95069.81;5088558;28;20012;-65
2022/09/13 04:11:39;;;;;;;;;;;;;;;15.63;63.70;95067.13;5089040;28;20017;-65
2022/09/13 04:14:05;;;;;;;;;;;;;;;15.66;64.03;95068.34;5089168;28;20013;-65
2022/09/13 04:16:30;;;;;;;;;;;;;;;15.68;63.83;95066.13;5070497;28;20013;-65
2022/09/13 04:18:55;;;;;;;;;;;;;;;15.67;64.20;95068.03;5087390;28;20063;-65
2022/09/13 04:21:20;;;;;;;;;;;;;;;15.67;64.03;95068.03;5071660;28;20044;-65
2022/09/13 04:23:48;;;;;;;;;;;;;;;15.69;64.16;95073.81;5070438;28;20532;-64
2022/09/13 04:26:13;;;;;;;;;;;;;;;15.72;64.11;95067.03;5071427;28;20451;-65
2022/09/13 04:28:39;;;;;;;;;;;;;;;15.73;63.99;95058.63;5087335;28;20101;-65
2022/09/13 04:31:04;;;;;;;;;;;;;;;15.79;64.05;95061.84;5089129;28;20001;-65
2022/09/13 04:33:30;;;;;;;;;;;;;;;15.82;64.36;95067.34;5069635;28;20036;-65
2022/09/13 04:35:59;;;;;;;;;;;;;;;15.82;64.20;95061.19;5093582;28;20052;-66
2022/09/13 04:38:24;;;;;;;;;;;;;;;15.85;64.17;95080.03;5073114;28;20104;-65
2022/09/13 04:40:53;;;;;;;;;;;;;;;15.90;64.39;95075.56;5093408;28;20114;-65
2022/09/13 04:43:18;;;;;;;;;;;;;;;15.41;63.97;95003.25;5091810;28;20103;-65
2022/09/13 04:45:44;;;;;;;;;;;;;;;15.92;63.84;95067.97;5091519;28;20107;-65
2022/09/13 04:48:09;;;;;;;;;;;;;;;15.94;63.75;95074.56;5092625;28;20122;-65
2022/09/13 04:50:34;;;;;;;;;;;;;;;15.96;63.75;95072.31;5072782;28;20465;-65
2022/09/13 04:53:01;;;;;;;;;;;;;;;15.98;63.73;95077.34;5088385;28;20084;-63
2022/09/13 04:55:26;;;;;;;;;;;;;;;15.99;63.80;95082.38;5062504;28;20016;-63
2022/09/13 04:57:52;;;;;;;;;;;;;;;16.01;63.68;95080.13;5073512;28;20008;-63
2022/09/13 05:00:17;;;;;;;;;;;;;;;16.07;63.74;95084.16;5071240;28;20381;-63
2022/09/13 05:02:43;;;;;;;;;;;;;;;16.13;63.49;95086.59;5074816;28;20483;-63
2022/09/13 05:05:08;;;;;;;;;;;;;;;16.20;63.28;95092.16;5074295;28;20009;-64
2022/09/13 05:07:33;;;;;;;;;;;;;;;16.25;63.09;95083.88;5073519;28;20018;-63
2022/09/13 05:09:58;;;;;;;;;;;;;;;16.29;63.36;95084.75;5093657;28;20009;-63
2022/09/13 05:12:23;;;;;;;;;;;;;;;16.37;63.19;95079.22;5075229;28;20016;-64
2022/09/13 05:14:49;;;;;;;;;;;;;;;16.52;63.02;95079.59;5075053;28;20013;-64
2022/09/13 05:17:14;;;;;;;;;;;;;;;16.60;62.37;95076.78;5074512;28;20017;-63
2022/09/13 05:19:39;;;;;;;;;;;;;;;16.67;62.02;95078.88;5094053;28;20021;-64
2022/09/13 05:22:04;;;;;;;;;;;;;;;16.74;61.98;95073.72;5093273;28;20012;-64
2022/09/13 05:24:29;;;;;;;;;;;;;;;16.81;61.72;95081.19;5074994;28;20008;-65
2022/09/13 05:26:55;;;;;;;;;;;;;;;16.85;61.52;95092.81;5091873;28;20013;-64
2022/09/13 05:29:20;;;;;;;;;;;;;;;16.91;61.67;95099.47;5092798;28;20005;-64
2022/09/13 05:31:45;;;;;;;;;;;;;;;16.98;61.30;95101.56;5074370;28;20411;-64
2022/09/13 05:34:12;;;;;;;;;;;;;;;17.01;61.10;95096.28;5093924;28;20032;-63
2022/09/13 05:36:37;;;;;;;;;;;;;;;17.10;60.99;95096.91;5093340;28;20001;-65
2022/09/13 05:39:03;;;;;;;;;;;;;;;17.07;61.00;95081.47;5072428;28;20017;-66
2022/09/13 05:41:28;;;;;;;;;;;;;;;17.14;61.25;95086.22;5092757;28;20452;-66
2022/09/13 05:43:54;;;;;;;;;;;;;;;17.22;60.96;95077.22;5072146;28;20103;-64
2022/09/13 05:46:20;;;;;;;;;;;;;;;17.20;61.31;95078.69;5089448;28;20407;-66
2022/09/13 05:48:46;;;;;;;;;;;;;;;17.32;61.16;95087.44;5089509;28;20017;-66
2022/09/13 05:51:12;;;;;;;;;;;;;;;17.37;60.72;95075.66;5072888;28;20024;-65
2022/09/13 05:53:38;;;;;;;;;;;;;;;17.47;60.36;95082.41;5074547;28;20126;-67
2022/09/13 05:56:04;;;;;;;;;;;;;;;17.52;60.40;95084.84;5091668;28;20052;-64
2022/09/13 05:58:29;;;;;;;;;;;;;;;17.59;59.96;95079.59;5073807;28;20106;-65
2022/09/13 06:00:55;;;;;;;;;;;;;;;17.66;59.70;95082.47;5096653;28;20013;-61
2022/09/13 06:03:23;;;;;;;;;;;;;;;17.72;59.86;95086.44;5094590;28;20107;-65
2022/09/13 06:05:49;;;;;;;;;;;;;;;17.82;59.57;95085.94;5058353;28;20020;-66
2022/09/13 06:08:15;;;;;;;;;;;;;;;17.93;59.26;95089.63;5071237;28;20013;-66
2022/09/13 06:10:40;;;;;;;;;;;;;;;18.09;58.91;95088.81;5089438;28;20013;-67
2022/09/13 06:13:05;;;;;;;;;;;;;;;18.18;58.89;95084.78;5089636;28;20108;-66
2022/09/13 06:15:30;;;;;;;;;;;;;;;18.27;58.59;95078.38;5090584;28;20032;-66
2022/09/13 06:17:56;;;;;;;;;;;;;;;18.35;58.29;95086.25;5072449;28;20016;-66
2022/09/13 06:20:21;;;;;;;;;;;;;;;18.47;58.28;95093.41;5084904;28;20013;-66
2022/09/13 06:22:46;;;;;;;;;;;;;;;18.50;57.99;95095.41;5090929;28;20099;-66
2022/09/13 06:25:12;;;;;;;;;;;;;;;18.66;57.77;95088.00;5072184;28;20013;-66
2022/09/13 06:27:37;;;;;;;;;;;;;;;18.74;57.65;95088.19;5089008;28;20448;-67
2022/09/13 06:30:02;;;;;;;;;;;;;;;18.83;57.21;95086.03;5072286;28;20459;-67
2022/09/13 06:32:27;;;;;;;;;;;;;;;18.94;57.05;95081.63;5087839;28;20012;-65
2022/09/13 06:34:53;;;;;;;;;;;;;;;19.28;56.25;95071.78;5090215;28;20009;-67
2022/09/13 06:37:18;;;;;;;;;;;;;;;19.46;55.95;95074.78;5068884;28;20052;-66
2022/09/13 06:39:43;;;;;;;;;;;;;;;19.56;55.67;95074.16;5052500;28;20796;-66
2022/09/13 06:42:09;;;;;;;;;;;;;;;19.69;55.17;95080.16;5070867;28;20058;-67
2022/09/13 06:44:34;;;;;;;;;;;;;;;19.84;55.09;95075.75;5075764;28;20066;-66
2022/09/13 06:46:59;;;;;;;;;;;;;;;19.82;55.36;95080.72;5106551;28;20117;-66
2022/09/13 06:49:24;;;;;;;;;;;;;;;19.89;54.64;95084.31;5089550;28;20020;-67
2022/09/13 06:51:49;;;;;;;;;;;;;;;20.00;54.62;95079.81;5090373;28;20446;-66
2022/09/13 06:54:15;;;;;;;;;;;;;;;20.14;53.99;95087.34;5090411;28;20000;-66
2022/09/13 06:56:40;;;;;;;;;;;;;;;20.25;53.59;95082.06;5090776;28;20009;-66
2022/09/13 06:59:06;;;;;;;;;;;;;;;20.34;52.43;95073.69;5105943;28;20581;-66
2022/09/13 07:01:35;;;;;;;;;;;;;;;20.49;52.50;95078.94;5090689;28;20005;-67
2022/09/13 07:04:02;;;;;;;;;;;;;;;20.62;51.77;95078.66;5071765;28;20133;-66
2022/09/13 07:06:29;;;;;;;;;;;;;;;20.83;51.70;95067.31;5090357;28;20013;-67
2022/09/13 07:08:55;;;;;;;;;;;;;;;21.01;51.59;95068.25;5090521;28;19989;-66
2022/09/13 07:11:21;;;;;;;;;;;;;;;21.22;51.54;95068.44;5090692;28;20028;-66
2022/09/13 07:13:56;;;;;;;;;;;;;;;21.39;50.62;95072.47;5090679;28;20009;-67
2022/09/13 07:16:22;;;;;;;;;;;;;;;21.66;50.58;95070.38;5089641;28;20020;-68
2022/09/13 07:18:52;;;;;;;;;;;;;;;21.79;49.34;95082.44;5090233;28;20073;-67
2022/09/13 07:21:17;;;;;;;;;;;;;;;21.82;48.08;95088.28;5089538;28;20028;-66
2022/09/13 07:23:42;;;;;;;;;;;;;;;21.97;47.43;95082.56;5090682;28;20009;-67
2022/09/13 07:26:09;;;;;;;;;;;;;;;22.39;47.72;95070.41;5071759;28;20013;-67
2022/09/13 07:28:38;;;;;;;;;;;;;;;22.71;47.41;95073.22;5090008;28;20044;-65
2022/09/13 07:31:13;;;;;;;;;;;;;;;22.92;46.04;95075.22;5089594;28;20118;-66
2022/09/13 07:33:40;;;;;;;;;;;;;;;23.20;46.15;95076.47;5090135;28;20079;-67
2022/09/13 07:36:06;;;;;;;;;;;;;;;23.44;45.95;95069.47;5089100;28;20074;-66
2022/09/13 07:38:32;;;;;;;;;;;;;;;23.54;45.24;95066.75;5089863;28;20028;-67
2022/09/13 07:40:58;;;;;;;;;;;;;;;23.70;44.90;95065.59;5090288;28;20440;-66
2022/09/13 07:43:24;;;;;;;;;;;;;;;23.84;44.38;95062.88;5090269;28;20028;-67
2022/09/13 07:46:06;;;;;;;;;;;;;;;24.09;44.38;95068.25;5071183;28;20017;-66
2022/09/13 07:48:33;;;;;;;;;;;;;;;24.15;42.88;95069.41;5069296;28;20013;-67
2022/09/13 07:50:58;;;;;;;;;;;;;;;24.36;43.36;95082.97;5065654;28;20020;-66
2022/09/13 07:53:24;;;;;;;;;;;;;;;24.49;42.22;95085.25;5086699;28;20008;-67
2022/09/13 07:55:49;;;;;;;;;;;;;;;24.69;42.12;95080.88;5087089;28;20024;-67
2022/09/13 07:58:14;;;;;;;;;;;;;;;24.86;41.21;95081.94;5087247;28;20539;-67
2022/09/13 08:00:39;;;;;;;;;;;;;;;25.20;40.91;95074.00;5068383;28;20421;-66
2022/09/13 08:03:05;;;;;;;;;;;;;;;25.53;40.26;95066.34;5067371;28;20436;-67
2022/09/13 08:05:31;;;;;;;;;;;;;;;25.83;39.55;95065.72;5068741;28;20460;-66
2022/09/13 08:07:56;;;;;;;;;;;;;;;25.38;39.10;95074.63;5086423;28;20017;-67
2022/09/13 08:10:21;;;;;;;;;;;;;;;25.87;38.91;95075.41;5090981;28;20015;-67
2022/09/13 08:12:47;;;;;;;;;;;;;;;24.45;38.11;95081.75;5071979;28;20538;-67
2022/09/13 08:15:12;;;;;;;;;;;;;;;24.85;38.43;95078.47;5090395;28;20075;-66
2022/09/13 08:17:37;;;;;;;;;;;;;;;25.04;37.45;95076.41;5088385;28;20024;-66
2022/09/13 08:20:03;;;;;;;;;;;;;;;24.94;36.62;95075.31;5071913;28;20460;-66
2022/09/13 08:22:28;;;;;;;;;;;;;;;25.52;37.38;95078.44;5070004;28;20002;-66
2022/09/13 08:24:53;;;;;;;;;;;;;;;25.17;37.87;95077.50;5068899;28;20009;-66
2022/09/13 08:27:19;;;;;;;;;;;;;;;24.04;39.67;95074.84;5072390;28;20108;-66
2022/09/13 08:29:44;;;;;;;;;;;;;;;23.86;40.43;95076.84;5071808;28;20009;-66
2022/09/13 08:32:09;;;;;;;;;;;;;;;24.84;39.30;95071.47;5089986;28;20005;-67
2022/09/13 08:34:35;;;;;;;;;;;;;;;25.30;38.43;95075.88;5090987;28;20052;-66
2022/09/13 08:37:00;;;;;;;;;;;;;;;25.06;39.05;95074.06;5093599;28;20005;-66
2022/09/13 08:39:25;;;;;;;;;;;;;;;25.36;39.57;95074.28;5074696;28;20013;-66
2022/09/13 08:41:51;;;;;;;;;;;;;;;25.57;39.24;95078.00;5093884;28;20003;-67
2022/09/13 08:44:32;;;;;;;;;;;;;;;24.71;39.72;95089.41;5074529;28;20005;-66
2022/09/13 08:47:13;;;;;;;;;;;;;;;24.78;40.18;95083.94;5092357;28;20016;-66
2022/09/13 08:49:44;;;;;;;;;;;;;;;25.14;40.03;95081.06;5072813;28;20062;-66
2022/09/13 08:52:15;;;;;;;;;;;;;;;24.16;40.91;95075.59;5073181;28;20362;-66
2022/09/13 08:54:40;;;;;;;;;;;;;;;23.84;41.16;95074.50;5072853;28;20006;-66
2022/09/13 08:57:05;;;;;;;;;;;;;;;24.79;40.22;95065.69;5066284;28;19993;-67
2022/09/13 08:59:50;;;;;;;;;;;;;;;25.19;38.91;95072.47;5074289;28;20017;-67
2022/09/13 09:02:28;;;;;;;;;;;;;;;24.97;38.68;95071.78;5072211;28;20096;-67
2022/09/13 09:05:25;;;;;;;;;;;;;;;25.12;38.73;95069.78;5072614;28;20013;-67
2022/09/13 09:07:58;;;;;;;;;;;;;;;24.67;38.89;95066.91;5045470;28;20016;-67
2022/09/13 09:10:36;;;;;;;;;;;;;;;25.35;38.05;95058.34;5073949;28;20020;-67
2022/09/13 09:13:12;;;;;;;;;;;;;;;24.32;39.54;95057.72;5091097;28;20083;-67
2022/09/13 09:15:40;;;;;;;;;;;;;;;24.09;40.46;95068.25;5072517;28;20066;-68
2022/09/13 09:18:13;;;;;;;;;;;;;;;23.74;39.20;95064.44;5074145;28;20009;-68
2022/09/13 09:20:46;;;;;;;;;;;;;;;23.57;40.46;95065.97;5074749;28;20009;-67
2022/09/13 09:23:17;;;;;;;;;;;;;;;24.24;40.23;95067.03;5093106;28;20031;-69
2022/09/13 09:25:42;;;;;;;;;;;;;;;24.46;40.41;95073.19;5091900;28;20464;-67
2022/09/13 09:28:12;;;;;;;;;;;;;;;24.46;39.19;95062.31;5108967;28;20015;-66
2022/09/13 09:30:56;;;;;;;;;;;;;;;24.49;39.71;95058.81;5092466;28;20005;-67
2022/09/13 09:33:22;;;;;;;;;;;;;;;24.01;39.95;95059.34;5091209;28;20016;-67
2022/09/13 09:35:55;;;;;;;;;;;;;;;24.31;40.21;95055.34;5074239;28;20009;-67
2022/09/13 09:38:36;;;;;;;;;;;;;;;24.34;39.92;95058.06;5090962;28;20460;-67
2022/09/13 09:41:40;;;;;;;;;;;;;;;24.80;39.39;95050.91;5092179;28;20009;-67
2022/09/13 09:44:05;;;;;;;;;;;;;;;24.75;39.89;95046.66;4993775;28;20017;-67
2022/09/13 09:46:32;;;;;;;;;;;;;;;24.82;39.38;95056.72;4993221;28;20010;-68
2022/09/13 09:50:08;;;;;;;;;;;;;;;24.64;39.78;95054.88;5028712;28;20012;-68
2022/09/13 09:51:59;;;;;;;;;;;;;;;24.70;39.26;95055.22;5091668;28;20013;-68
2022/09/13 09:54:25;;;;;;;;;;;;;;;25.17;39.03;95058.47;5091964;28;20107;-67
2022/09/13 09:56:52;;;;;;;;;;;;;;;24.82;39.36;95051.25;5091793;28;20012;-67
2022/09/13 09:59:36;;;;;;;;;;;;;;;25.50;38.96;95042.66;5072868;28;19989;-67
2022/09/13 10:02:10;;;;;;;;;;;;;;;25.41;39.53;95032.22;5072947;28;20016;-67
2022/09/13 10:04:35;;;;;;;;;;;;;;;26.08;37.95;95030.06;5073093;28;20401;-68
2022/09/13 10:07:16;;;;;;;;;;;;;;;25.41;38.00;95022.09;5091578;28;20096;-67
2022/09/13 10:09:54;;;;;;;;;;;;;;;25.28;38.06;95028.44;5091329;28;20066;-67
2022/09/13 10:12:25;;;;;;;;;;;;;;;25.06;38.26;95016.91;5090737;28;20020;-67
2022/09/13 10:14:57;;;;;;;;;;;;;;;25.20;37.91;95007.91;5073777;28;20495;-67
2022/09/13 10:17:23;;;;;;;;;;;;;;;25.19;37.88;95019.97;5105900;28;20017;-67
2022/09/13 10:20:02;;;;;;;;;;;;;;;25.33;37.66;95020.59;5089572;28;20009;-67
2022/09/13 10:22:29;;;;;;;;;;;;;;;25.88;37.44;95017.00;5073349;28;20384;-68
2022/09/13 10:24:54;;;;;;;;;;;;;;;25.50;38.00;95015.44;5091079;28;20012;-67
2022/09/13 10:27:32;;;;;;;;;;;;;;;25.58;38.17;95016.91;5072987;28;20013;-67
2022/09/13 10:29:59;;;;;;;;;;;;;;;26.19;36.74;95011.63;5090501;28;20364;-67
2022/09/13 10:32:25;;;;;;;;;;;;;;;25.99;37.95;95007.94;5090298;28;20008;-66
2022/09/13 10:34:51;;;;;;;;;;;;;;;25.88;37.94;95011.56;5072634;28;20404;-67
2022/09/13 10:37:18;;;;;;;;;;;;;;;26.04;37.60;95002.06;5073060;28;20015;-67
2022/09/13 10:39:56;;;;;;;;;;;;;;;26.24;37.60;95004.94;5072587;28;20705;-67
2022/09/13 10:42:23;;;;;;;;;;;;;;;25.82;38.18;95002.28;5091255;28;20009;-67
2022/09/13 10:44:55;;;;;;;;;;;;;;;26.31;36.72;95004.84;5091227;28;20372;-67
2022/09/13 10:47:23;;;;;;;;;;;;;;;26.91;36.08;95004.06;5072918;28;20017;-67
2022/09/13 10:49:51;;;;;;;;;;;;;;;27.36;35.51;94989.34;5071561;28;20016;-67
2022/09/13 10:52:23;;;;;;;;;;;;;;;27.60;35.21;94999.09;5072748;28;20032;-67
2022/09/13 10:54:49;;;;;;;;;;;;;;;27.23;35.26;94991.13;5090782;28;20059;-67
2022/09/13 10:57:33;;;;;;;;;;;;;;;28.01;34.36;94995.25;5100701;28;20372;-67
2022/09/13 10:59:59;;;;;;;;;;;;;;;28.19;34.25;94990.19;5088821;28;20012;-68
2022/09/13 11:02:24;;;;;;;;;;;;;;;28.46;34.26;94997.50;5072565;28;20039;-67
2022/09/13 11:05:05;;;;;;;;;;;;;;;28.85;33.58;94993.13;5089662;28;20468;-67
2022/09/13 11:07:49;;;;;;;;;;;;;;;28.54;33.75;94984.44;5090308;28;20021;-68
2022/09/13 11:10:27;;;;;;;;;;;;;;;29.44;32.13;94984.69;5090466;28;20638;-67
2022/09/13 11:13:06;;;;;;;;;;;;;;;30.26;30.52;94982.56;5072403;28;20013;-68
2022/09/13 11:15:37;;;;;;;;;;;;;;;30.93;30.31;94979.03;5070664;28;20008;-67
2022/09/13 11:18:11;;;;;;;;;;;;;;;31.42;28.79;94973.16;5071466;28;20063;-68
2022/09/13 11:20:42;;;;;;;;;;;;;;;32.15;28.42;94981.28;5070084;28;20043;-68
2022/09/13 11:23:13;;;;;;;;;;;;;;;31.50;28.14;94974.47;5070161;28;20013;-68
2022/09/13 11:25:57;;;;;;;;;;;;;;;31.55;27.62;94975.88;5051766;28;20016;-68
2022/09/13 11:28:43;;;;;;;;;;;;;;;31.37;27.84;94970.97;5090885;28;20514;-68
2022/09/13 11:31:25;;;;;;;;;;;;;;;31.80;26.89;94969.53;5070236;28;20009;-68
2022/09/13 11:33:59;;;;;;;;;;;;;;;32.71;27.08;94965.84;5099062;28;20582;-67
2022/09/13 11:36:45;;;;;;;;;;;;;;;32.36;26.97;94968.75;5071532;28;20012;-68
2022/09/13 11:39:17;;;;;;;;;;;;;;;32.79;26.17;94972.63;5071696;28;20052;-68
2022/09/13 11:41:54;;;;;;;;;;;;;;;32.91;25.31;94969.03;5072040;28;20009;-68
2022/09/13 11:44:19;;;;;;;;;;;;;;;32.82;25.28;94980.00;5071186;28;20016;-68
2022/09/13 11:46:44;;;;;;;;;;;;;;;31.94;27.22;94971.81;5089036;28;20008;-68
2022/09/13 11:49:28;;;;;;;;;;;;;;;31.18;27.77;94971.97;5088295;28;20017;-68
2022/09/13 11:52:08;;;;;;;;;;;;;;;29.99;28.77;94990.31;5090202;28;20016;-68
2022/09/13 11:54:52;;;;;;;;;;;;;;;30.90;27.23;94981.88;5071633;28;20547;-68
2022/09/13 11:57:20;;;;;;;;;;;;;;;32.31;25.94;94978.34;5070748;28;20019;-68
2022/09/13 11:59:51;;;;;;;;;;;;;;;31.12;27.12;94973.72;5089418;28;20009;-68
2022/09/13 12:02:35;;;;;;;;;;;;;;;30.52;28.46;94993.59;5071170;28;20019;-68
2022/09/13 12:05:09;;;;;;;;;;;;;;;29.86;29.90;94984.81;5051749;28;20066;-68
2022/09/13 12:07:46;;;;;;;;;;;;;;;29.99;29.87;94985.63;5069786;28;20013;-68
2022/09/13 12:10:21;;;;;;;;;;;;;;;29.92;29.88;94985.81;5077072;28;20695;-68
2022/09/13 12:12:49;;;;;;;;;;;;;;;29.48;28.86;94979.09;5071720;28;20487;-68
2022/09/13 12:15:18;;;;;;;;;;;;;;;29.73;29.34;94978.50;5089985;28;20005;-66
2022/09/13 12:17:47;;;;;;;;;;;;;;;29.45;30.31;94982.72;5088912;28;20016;-68
2022/09/13 12:20:16;;;;;;;;;;;;;;;29.24;30.51;94981.28;5089458;28;20009;-66
2022/09/13 12:22:41;;;;;;;;;;;;;;;29.13;30.69;94967.84;5071443;28;20397;-67
2022/09/13 12:25:16;;;;;;;;;;;;;;;28.36;31.51;94977.38;5071036;28;20020;-68
2022/09/13 12:27:51;;;;;;;;;;;;;;;28.69;30.66;94966.50;5088865;28;20013;-67
2022/09/13 12:30:18;;;;;;;;;;;;;;;28.97;30.46;94965.88;5070918;28;20012;-67
2022/09/13 12:32:44;;;;;;;;;;;;;;;29.16;29.98;94966.22;5089146;28;20012;-67
2022/09/13 12:35:16;;;;;;;;;;;;;;;29.45;30.23;94958.81;5070948;28;20013;-66
2022/09/13 12:37:47;;;;;;;;;;;;;;;29.16;30.33;94958.00;5071384;28;20828;-67
2022/09/13 12:40:19;;;;;;;;;;;;;;;28.15;32.08;94955.88;5089086;28;20005;-67
2022/09/13 12:42:56;;;;;;;;;;;;;;;28.58;31.88;94960.50;5089110;28;20511;-68
2022/09/13 12:45:35;;;;;;;;;;;;;;;28.02;32.19;94953.03;5085548;28;20094;-67
2022/09/13 12:48:07;;;;;;;;;;;;;;;28.35;31.04;94947.69;5070479;28;20017;-67
2022/09/13 12:50:58;;;;;;;;;;;;;;;28.23;32.06;94944.38;5088533;28;20016;-67
2022/09/13 12:53:42;;;;;;;;;;;;;;;28.73;31.35;94950.78;5067084;28;20013;-67
2022/09/13 12:56:23;;;;;;;;;;;;;;;28.14;32.05;94949.66;5073171;28;20009;-67
2022/09/13 12:59:07;;;;;;;;;;;;;;;28.35;31.81;94947.69;5092083;28;20130;-68
2022/09/13 13:01:32;;;;;;;;;;;;;;;28.15;31.68;94950.41;5092842;28;20507;-66